Time;durP1;ratioP1;P1;durP2;ratioP2;P2;SDS_P1;SDS_P2;PMS_P1;PMS_P2;Temp;Humidity;BMP_temperature;BMP_pressure;BME280_temperature;BME280_humidity;BME280_pressure;Samples;Min_cycle;Max_cycle;Signal;HPM_P1;HPM_P2
2021/09/03 00:02:07;;;;;;;4.72;2.38;;;26.40;44.50;;;;;;6235125;28;20042;-79
2021/09/03 00:05:14;;;;;;;5.68;2.83;;;26.30;44.60;;;;;;6246720;28;20061;-79
2021/09/03 00:08:15;;;;;;;4.63;2.87;;;26.30;44.90;;;;;;6251467;28;20115;-79
2021/09/03 00:11:16;;;;;;;3.10;2.50;;;26.30;45.10;;;;;;6251751;28;20733;-79
2021/09/03 00:14:17;;;;;;;6.30;2.42;;;26.20;45.30;;;;;;6232847;28;20048;-79
2021/09/03 00:17:18;;;;;;;6.85;2.45;;;26.20;45.40;;;;;;6235395;28;20045;-79
2021/09/03 00:20:19;;;;;;;4.45;2.33;;;26.10;45.30;;;;;;6251712;28;20033;-79
2021/09/03 00:23:19;;;;;;;12.23;2.42;;;26.10;45.40;;;;;;6252629;28;20045;-79
2021/09/03 00:26:20;;;;;;;5.57;3.25;;;26.10;45.50;;;;;;6235125;28;20041;-79
2021/09/03 00:29:21;;;;;;;4.18;2.50;;;26.10;45.50;;;;;;6250806;28;20049;-79
2021/09/03 00:32:22;;;;;;;4.82;2.50;;;26.10;45.80;;;;;;6233219;28;20022;-79
2021/09/03 00:35:24;;;;;;;5.97;2.70;;;26.10;46.10;;;;;;6235783;28;20351;-79
2021/09/03 00:38:25;;;;;;;8.63;2.38;;;26.10;46.50;;;;;;6236320;28;20068;-79
2021/09/03 00:41:26;;;;;;;4.15;2.60;;;26.10;47.10;;;;;;6252045;28;20454;-79
2021/09/03 00:44:27;;;;;;;4.38;2.53;;;26.00;47.70;;;;;;6250492;28;20045;-79
2021/09/03 00:47:29;;;;;;;7.53;2.50;;;25.90;48.80;;;;;;6251121;28;20124;-79
2021/09/03 00:50:30;;;;;;;5.93;2.63;;;25.80;49.80;;;;;;6226558;28;20119;-78
2021/09/03 00:53:33;;;;;;;4.47;2.38;;;25.60;50.60;;;;;;6234667;28;20041;-78
2021/09/03 00:56:35;;;;;;;4.20;2.67;;;25.40;50.90;;;;;;6250952;28;20029;-78
2021/09/03 00:59:36;;;;;;;4.55;2.70;;;25.30;51.30;;;;;;6234123;28;20037;-79
2021/09/03 01:02:37;;;;;;;3.85;2.78;;;25.30;51.60;;;;;;6233685;28;20493;-79
2021/09/03 01:05:38;;;;;;;3.75;2.30;;;25.20;51.70;;;;;;6234260;28;20084;-79
2021/09/03 01:08:39;;;;;;;5.03;2.63;;;25.10;52.00;;;;;;6250904;28;20470;-79
2021/09/03 01:11:40;;;;;;;3.97;2.55;;;25.10;52.50;;;;;;6234219;28;20447;-79
2021/09/03 01:14:42;;;;;;;3.95;2.40;;;25.10;52.70;;;;;;6250088;28;20467;-79
2021/09/03 01:17:43;;;;;;;6.20;2.90;;;25.10;52.80;;;;;;6250333;28;20068;-79
2021/09/03 01:20:45;;;;;;;6.40;2.83;;;25.00;52.80;;;;;;6249958;28;20040;-78
2021/09/03 01:23:46;;;;;;;5.50;2.65;;;25.00;53.10;;;;;;6250355;28;20045;-79
2021/09/03 01:26:48;;;;;;;5.03;2.90;;;24.90;53.20;;;;;;6250073;28;20042;-78
2021/09/03 01:29:48;;;;;;;5.32;2.85;;;24.80;53.50;;;;;;6249988;28;20049;-78
2021/09/03 01:32:50;;;;;;;5.53;3.20;;;24.70;53.90;;;;;;6249162;28;20125;-78
2021/09/03 01:35:51;;;;;;;5.45;3.00;;;24.70;54.10;;;;;;6250042;28;20471;-78
2021/09/03 01:38:52;;;;;;;5.93;2.90;;;24.70;54.50;;;;;;6233620;28;20045;-78
2021/09/03 01:41:53;;;;;;;4.40;2.90;;;24.70;54.60;;;;;;6251303;28;20041;-78
2021/09/03 01:44:53;;;;;;;6.70;2.70;;;24.70;54.60;;;;;;6249409;28;20048;-79
2021/09/03 01:47:56;;;;;;;4.43;2.70;;;24.70;54.50;;;;;;6227942;28;20049;-79
2021/09/03 01:50:57;;;;;;;7.95;3.05;;;24.70;54.30;;;;;;6250587;28;20473;-78
2021/09/03 01:53:57;;;;;;;3.85;2.67;;;24.60;54.50;;;;;;6233149;28;20053;-78
2021/09/03 01:56:58;;;;;;;8.18;2.83;;;24.60;54.80;;;;;;6249577;28;20340;-78
2021/09/03 01:59:59;;;;;;;5.40;2.90;;;24.50;55.00;;;;;;6250462;28;20523;-78
2021/09/03 02:03:00;;;;;;;5.05;2.97;;;24.50;55.40;;;;;;6248633;28;20037;-78
2021/09/03 02:06:01;;;;;;;4.78;3.05;;;24.40;55.80;;;;;;6249612;28;20034;-79
2021/09/03 02:09:03;;;;;;;6.10;3.00;;;24.40;56.10;;;;;;6249156;28;20041;-78
2021/09/03 02:12:04;;;;;;;6.07;2.55;;;24.30;56.20;;;;;;6231054;28;20039;-79
2021/09/03 02:15:05;;;;;;;6.90;2.75;;;24.30;56.40;;;;;;6223062;28;20181;-79
2021/09/03 02:18:07;;;;;;;5.85;2.75;;;24.20;56.40;;;;;;6232613;28;20447;-79
2021/09/03 02:21:11;;;;;;;9.85;2.95;;;24.10;56.40;;;;;;6249917;28;20026;-79
2021/09/03 02:24:12;;;;;;;10.63;3.13;;;24.10;56.60;;;;;;6250292;28;20056;-79
2021/09/03 02:27:13;;;;;;;6.40;2.85;;;24.10;56.70;;;;;;6249691;28;20467;-79
2021/09/03 02:30:14;;;;;;;3.65;2.33;;;24.10;56.80;;;;;;6227680;28;20126;-78
2021/09/03 02:33:15;;;;;;;5.35;2.90;;;24.10;56.70;;;;;;6231696;28;20147;-79
2021/09/03 02:36:16;;;;;;;5.70;2.60;;;24.00;56.70;;;;;;6248774;28;20061;-79
2021/09/03 02:39:17;;;;;;;6.35;2.90;;;24.00;56.70;;;;;;6248850;28;20041;-79
2021/09/03 02:42:17;;;;;;;4.35;2.35;;;24.10;56.80;;;;;;6248620;28;20033;-79
2021/09/03 02:45:18;;;;;;;4.03;2.70;;;24.00;56.70;;;;;;6247373;28;20366;-79
2021/09/03 02:48:19;;;;;;;5.57;2.95;;;24.00;56.70;;;;;;6248361;28;20029;-79
2021/09/03 02:51:20;;;;;;;3.60;2.53;;;24.00;56.80;;;;;;6248010;28;20041;-79
2021/09/03 02:54:21;;;;;;;9.38;2.90;;;23.90;57.00;;;;;;6227658;28;20053;-79
2021/09/03 02:57:22;;;;;;;4.75;2.50;;;23.90;57.00;;;;;;6248285;28;20033;-78
2021/09/03 03:00:23;;;;;;;5.60;2.65;;;23.90;57.10;;;;;;6231624;28;20339;-79
2021/09/03 03:03:24;;;;;;;4.53;2.85;;;23.90;57.30;;;;;;6246948;28;20044;-79
2021/09/03 03:06:27;;;;;;;4.25;2.65;;;23.90;57.50;;;;;;6247944;28;20029;-79
2021/09/03 03:09:28;;;;;;;11.38;2.80;;;23.90;57.70;;;;;;6246976;28;20037;-79
2021/09/03 03:12:28;;;;;;;4.20;2.92;;;23.80;57.70;;;;;;6231210;28;20111;-79
2021/09/03 03:15:29;;;;;;;11.90;3.22;;;23.80;57.90;;;;;;6247682;28;20048;-79
2021/09/03 03:18:30;;;;;;;4.88;2.70;;;23.80;57.90;;;;;;6247645;28;20108;-79
2021/09/03 03:21:31;;;;;;;9.55;3.08;;;23.80;57.90;;;;;;6231346;28;20104;-79
2021/09/03 03:24:32;;;;;;;6.65;3.25;;;23.80;58.00;;;;;;6248940;28;20044;-78
2021/09/03 03:27:33;;;;;;;4.30;3.40;;;23.80;58.00;;;;;;6246631;28;20037;-78
2021/09/03 03:30:34;;;;;;;5.95;2.95;;;23.80;58.10;;;;;;6247213;28;20045;-79
2021/09/03 03:33:35;;;;;;;11.70;2.97;;;23.80;58.20;;;;;;6230391;28;20045;-78
2021/09/03 03:36:36;;;;;;;8.43;2.75;;;23.80;58.30;;;;;;6247260;28;20037;-79
2021/09/03 03:39:37;;;;;;;6.50;3.53;;;23.80;58.40;;;;;;6248510;28;20434;-78
2021/09/03 03:42:38;;;;;;;7.32;3.08;;;23.80;58.50;;;;;;6247179;28;20049;-79
2021/09/03 03:45:39;;;;;;;5.45;3.05;;;23.80;58.50;;;;;;6247755;28;20044;-79
2021/09/03 03:48:40;;;;;;;6.25;2.88;;;23.80;58.50;;;;;;6247325;28;20116;-79
2021/09/03 03:51:41;;;;;;;5.15;3.22;;;23.80;58.70;;;;;;6246397;28;20064;-78
2021/09/03 03:54:42;;;;;;;5.85;3.95;;;23.80;58.80;;;;;;6247407;28;20041;-79
2021/09/03 03:57:43;;;;;;;6.13;3.38;;;23.80;58.90;;;;;;6253647;28;20053;-78
2021/09/03 04:00:45;;;;;;;6.47;3.25;;;23.80;58.80;;;;;;6246881;28;20121;-78
2021/09/03 04:03:46;;;;;;;4.78;3.33;;;23.80;59.10;;;;;;6230751;28;20037;-78
2021/09/03 04:06:47;;;;;;;9.13;3.30;;;23.80;59.00;;;;;;6247385;28;20525;-79
2021/09/03 04:09:48;;;;;;;7.53;3.20;;;23.80;59.00;;;;;;6247618;28;20037;-79
2021/09/03 04:12:50;;;;;;;6.63;3.38;;;23.80;59.10;;;;;;6232671;28;20049;-79
2021/09/03 04:15:52;;;;;;;6.53;3.22;;;23.80;59.30;;;;;;6248106;28;20065;-79
2021/09/03 04:18:54;;;;;;;9.18;3.97;;;23.70;59.40;;;;;;6248282;28;20125;-79
2021/09/03 04:21:55;;;;;;;7.47;3.88;;;23.70;59.50;;;;;;6246948;28;20117;-79
2021/09/03 04:24:56;;;;;;;6.63;3.45;;;23.70;59.50;;;;;;6231214;28;20037;-79
2021/09/03 04:27:57;;;;;;;5.90;2.92;;;23.70;60.20;;;;;;6251582;28;20518;-78
2021/09/03 04:30:58;;;;;;;7.28;3.30;;;23.70;59.60;;;;;;6251940;28;20136;-79
2021/09/03 04:33:58;;;;;;;6.25;3.63;;;23.70;59.60;;;;;;6251083;28;20030;-79
2021/09/03 04:36:59;;;;;;;8.27;3.40;;;23.70;59.60;;;;;;6251497;28;20064;-77
2021/09/03 04:40:02;;;;;;;7.93;3.35;;;23.70;59.60;;;;;;6251645;28;20040;-79
2021/09/03 04:43:03;;;;;;;4.50;3.60;;;23.70;59.70;;;;;;6250953;28;20045;-78
2021/09/03 04:46:04;;;;;;;5.85;3.47;;;23.60;59.80;;;;;;6234546;28;20037;-78
2021/09/03 04:49:05;;;;;;;5.57;3.40;;;23.70;59.90;;;;;;6252152;28;20472;-78
2021/09/03 04:52:05;;;;;;;9.05;3.95;;;23.60;59.80;;;;;;6251672;28;20091;-77
2021/09/03 04:55:07;;;;;;;5.68;3.55;;;23.60;59.80;;;;;;6234625;28;20037;-78
2021/09/03 04:58:08;;;;;;;6.38;3.42;;;23.60;59.80;;;;;;6251293;28;20370;-77
2021/09/03 05:01:09;;;;;;;4.57;3.45;;;23.60;59.90;;;;;;6231798;28;20033;-76
2021/09/03 05:04:10;;;;;;;9.25;3.90;;;23.60;60.80;;;;;;6256499;28;20046;-76
2021/09/03 05:07:11;;;;;;;5.35;3.67;;;23.60;60.10;;;;;;6239213;28;20045;-76
2021/09/03 05:10:12;;;;;;;5.93;4.00;;;23.60;60.30;;;;;;6252823;28;20133;-77
2021/09/03 05:13:13;;;;;;;7.68;3.80;;;23.50;60.30;;;;;;6254095;28;20037;-79
2021/09/03 05:16:14;;;;;;;6.45;3.28;;;23.60;60.60;;;;;;6254399;28;20550;-77
2021/09/03 05:19:15;;;;;;;12.63;4.53;;;23.50;60.70;;;;;;6251381;28;20462;-76
2021/09/03 05:22:17;;;;;;;9.05;4.13;;;23.50;60.70;;;;;;6233939;28;20040;-78
2021/09/03 05:25:18;;;;;;;6.60;4.57;;;23.50;60.70;;;;;;6247864;28;20029;-76
2021/09/03 05:28:19;;;;;;;9.00;4.40;;;23.40;61.40;;;;;;6247807;28;20120;-77
2021/09/03 05:31:20;;;;;;;11.80;4.85;;;23.50;60.60;;;;;;6231843;28;20530;-76
2021/09/03 05:34:26;;;;;;;10.25;4.97;;;23.40;60.60;;;;;;6250773;28;20032;-76
2021/09/03 05:37:27;;;;;;;9.18;4.78;;;23.50;60.80;;;;;;6233875;28;20049;-76
2021/09/03 05:40:28;;;;;;;7.47;4.35;;;23.40;60.70;;;;;;6233370;28;20052;-76
2021/09/03 05:43:29;;;;;;;8.98;4.78;;;23.50;60.90;;;;;;6250039;28;20037;-76
2021/09/03 05:46:30;;;;;;;8.23;5.18;;;23.40;61.00;;;;;;6249410;28;20034;-77
2021/09/03 05:49:31;;;;;;;8.50;4.13;;;23.50;61.00;;;;;;6250389;28;20041;-77
2021/09/03 05:52:32;;;;;;;11.90;4.63;;;23.40;61.00;;;;;;6249638;28;20033;-76
2021/09/03 05:55:34;;;;;;;7.45;4.45;;;23.50;61.10;;;;;;6250635;28;20029;-76
2021/09/03 05:58:36;;;;;;;12.88;4.80;;;23.50;61.00;;;;;;6250630;28;20116;-76
2021/09/03 06:01:36;;;;;;;12.40;4.20;;;23.50;61.00;;;;;;6232940;28;20526;-76
2021/09/03 06:04:37;;;;;;;7.95;4.60;;;23.50;60.90;;;;;;6249013;28;20087;-76
2021/09/03 06:07:39;;;;;;;6.50;3.78;;;23.50;60.80;;;;;;6250326;28;20021;-76
2021/09/03 06:10:40;;;;;;;6.13;4.00;;;23.50;60.80;;;;;;6249629;28;20158;-76
2021/09/03 06:13:41;;;;;;;6.75;3.90;;;23.50;60.70;;;;;;6248935;28;20044;-76
2021/09/03 06:16:42;;;;;;;10.18;4.18;;;23.60;60.70;;;;;;6248807;28;20462;-77
2021/09/03 06:19:43;;;;;;;7.90;4.25;;;23.50;60.50;;;;;;6248601;28;20033;-75
2021/09/03 06:22:44;;;;;;;5.47;3.78;;;23.60;60.40;;;;;;6229493;28;20049;-78
2021/09/03 06:25:45;;;;;;;14.85;4.15;;;23.60;61.20;;;;;;6248260;28;20034;-77
2021/09/03 06:28:46;;;;;;;14.15;3.70;;;23.50;60.40;;;;;;6225028;28;20053;-77
2021/09/03 06:31:46;;;;;;;10.05;4.20;;;23.40;60.60;;;;;;6238838;28;20030;-78
2021/09/03 06:34:50;;;;;;;16.05;4.80;;;23.40;60.80;;;;;;6231596;28;20099;-79
2021/09/03 06:37:50;;;;;;;7.72;4.32;;;23.40;60.90;;;;;;6231832;28;20030;-80
2021/09/03 06:40:51;;;;;;;7.28;4.75;;;23.50;60.90;;;;;;6222297;28;20030;-77
2021/09/03 06:43:53;;;;;;;6.82;4.28;;;23.50;60.70;;;;;;6246886;28;20037;-79
2021/09/03 06:46:54;;;;;;;17.08;4.65;;;23.70;60.50;;;;;;6230625;28;20120;-77
2021/09/03 06:49:55;;;;;;;9.90;4.50;;;23.80;60.10;;;;;;6221205;28;20041;-78
2021/09/03 06:52:56;;;;;;;9.27;4.43;;;23.90;59.80;;;;;;6237526;28;20421;-79
2021/09/03 06:55:58;;;;;;;7.53;4.35;;;24.10;59.50;;;;;;6229870;28;20033;-80
2021/09/03 06:59:00;;;;;;;6.65;3.58;;;24.20;59.00;;;;;;6229406;28;20158;-77
2021/09/03 07:02:01;;;;;;;9.27;4.47;;;24.20;58.70;;;;;;6231417;28;20042;-78
2021/09/03 07:05:03;;;;;;;7.70;4.05;;;24.30;58.50;;;;;;6247842;28;20037;-78
2021/09/03 07:08:04;;;;;;;10.65;5.28;;;24.30;58.40;;;;;;6248168;28;20387;-79
2021/09/03 07:11:05;;;;;;;9.98;4.53;;;24.50;58.20;;;;;;6247139;28;20029;-79
2021/09/03 07:14:05;;;;;;;10.05;4.53;;;24.50;57.80;;;;;;6250215;28;20056;-80
2021/09/03 07:17:07;;;;;;;9.38;4.75;;;24.60;57.70;;;;;;6264455;28;20045;-81
2021/09/03 07:20:08;;;;;;;9.05;4.43;;;24.70;57.70;;;;;;6237979;28;20048;-80
2021/09/03 07:23:09;;;;;;;7.55;4.40;;;24.70;57.40;;;;;;6251798;28;20501;-82
2021/09/03 07:26:10;;;;;;;7.95;4.10;;;24.70;57.30;;;;;;6244009;28;20041;-80
2021/09/03 07:29:11;;;;;;;8.90;4.07;;;24.70;57.10;;;;;;6250760;28;20386;-80
2021/09/03 07:32:12;;;;;;;7.32;4.38;;;24.70;56.90;;;;;;6229057;28;20037;-81
2021/09/03 07:35:13;;;;;;;8.10;4.50;;;24.70;56.80;;;;;;6244706;28;20048;-80
2021/09/03 07:38:15;;;;;;;6.72;3.70;;;24.80;56.70;;;;;;6231527;28;20038;-80
2021/09/03 07:41:16;;;;;;;7.25;4.32;;;24.90;56.50;;;;;;6247566;28;20366;-79
2021/09/03 07:44:17;;;;;;;7.88;4.28;;;25.00;55.90;;;;;;6230091;28;20474;-81
2021/09/03 07:47:18;;;;;;;9.27;4.80;;;25.00;55.70;;;;;;6230195;28;20099;-80
2021/09/03 07:50:19;;;;;;;7.97;4.63;;;25.10;55.70;;;;;;6247154;28;20052;-80
2021/09/03 07:53:20;;;;;;;9.52;5.07;;;25.20;55.30;;;;;;6232323;28;20041;-79
2021/09/03 07:56:21;;;;;;;7.70;4.43;;;25.30;55.20;;;;;;6230529;28;20052;-81
2021/09/03 07:59:24;;;;;;;7.65;4.78;;;25.40;55.00;;;;;;6231820;28;20041;-79
2021/09/03 08:02:25;;;;;;;12.63;5.47;;;25.40;54.80;;;;;;6249032;28;20042;-77
2021/09/03 08:05:26;;;;;;;8.52;4.85;;;25.50;54.90;;;;;;6251458;28;20530;-79
2021/09/03 08:08:27;;;;;;;15.48;5.65;;;25.50;54.80;;;;;;6251046;28;20084;-78
2021/09/03 08:11:27;;;;;;;11.80;5.10;;;25.50;54.80;;;;;;6251082;28;20041;-79
2021/09/03 08:14:28;;;;;;;10.65;5.32;;;25.50;54.70;;;;;;6234049;28;20083;-78
2021/09/03 08:17:29;;;;;;;8.02;5.07;;;25.60;54.60;;;;;;6226619;28;20036;-77
2021/09/03 08:20:32;;;;;;;8.77;5.20;;;25.60;54.50;;;;;;6251040;28;20091;-78
2021/09/03 08:23:35;;;;;;;6.78;4.75;;;25.70;54.40;;;;;;6252307;28;20041;-78
2021/09/03 08:26:38;;;;;;;8.85;4.72;;;25.70;54.30;;;;;;6233147;28;20033;-79
2021/09/03 08:29:40;;;;;;;9.77;4.80;;;25.80;54.10;;;;;;6220819;28;20041;-78
2021/09/03 08:32:42;;;;;;;13.70;5.50;;;25.80;53.80;;;;;;6250065;28;20029;-80
2021/09/03 08:35:43;;;;;;;15.95;5.50;;;25.90;53.50;;;;;;6251232;28;20187;-77
2021/09/03 08:38:44;;;;;;;15.85;5.18;;;25.90;53.30;;;;;;6250705;28;20037;-77
2021/09/03 08:41:45;;;;;;;12.32;4.20;;;25.90;53.30;;;;;;6234272;28;20088;-79
2021/09/03 08:44:46;;;;;;;10.43;4.13;;;26.00;53.10;;;;;;6249242;28;20045;-79
2021/09/03 08:47:47;;;;;;;9.65;4.07;;;26.10;52.90;;;;;;6250365;28;20049;-78
2021/09/03 08:50:50;;;;;;;6.53;4.00;;;26.30;52.60;;;;;;6233780;28;20068;-79
2021/09/03 08:53:50;;;;;;;14.00;6.55;;;26.30;52.00;;;;;;6233482;28;20076;-78
2021/09/03 08:56:51;;;;;;;9.63;5.20;;;26.40;51.80;;;;;;6248172;28;20044;-79
2021/09/03 08:59:52;;;;;;;11.43;6.05;;;26.50;51.40;;;;;;6249746;28;20025;-78
2021/09/03 09:03:03;;;;;;;10.05;4.80;;;26.60;51.00;;;;;;6249482;28;20133;-79
2021/09/03 09:06:05;;;;;;;17.85;6.28;;;26.70;50.70;;;;;;6248670;28;20356;-79
2021/09/03 09:09:07;;;;;;;6.30;4.38;;;26.80;50.70;;;;;;6246780;28;20045;-77
2021/09/03 09:12:19;;;;;;;52.60;25.25;;;26.90;50.50;;;;;;6225536;28;20090;-78
2021/09/03 09:15:20;;;;;;;13.55;6.03;;;26.90;50.50;;;;;;6247637;28;20422;-77
2021/09/03 09:18:33;;;;;;;17.77;7.78;;;27.10;50.20;;;;;;6245624;28;20113;-77
2021/09/03 09:21:34;;;;;;;14.50;6.90;;;27.30;49.80;;;;;;6243800;28;20025;-78
2021/09/03 09:24:36;;;;;;;14.90;8.00;;;27.40;49.40;;;;;;6229582;28;20056;-79
2021/09/03 09:27:37;;;;;;;15.77;7.82;;;27.50;49.20;;;;;;6245219;28;20033;-79
2021/09/03 09:30:42;;;;;;;21.67;8.85;;;27.70;48.70;;;;;;6242618;28;20045;-78
2021/09/03 09:33:46;;;;;;;12.93;6.70;;;27.80;48.20;;;;;;6241885;28;20045;-78
2021/09/03 09:36:52;;;;;;;6.47;4.45;;;27.90;48.10;;;;;;6238484;28;20050;-80
2021/09/03 09:39:56;;;;;;;27.48;12.88;;;27.90;47.90;;;;;;6247679;28;20045;-80
2021/09/03 09:42:57;;;;;;;11.57;5.47;;;28.00;47.70;;;;;;6253357;28;20512;-81
2021/09/03 09:46:07;;;;;;;9.15;4.38;;;27.90;47.40;;;;;;6228099;28;20033;-80
2021/09/03 09:49:11;;;;;;;8.75;4.72;;;27.90;47.40;;;;;;6228731;28;20037;-81
2021/09/03 09:52:12;;;;;;;7.45;4.88;;;27.90;48.00;;;;;;6245584;28;20044;-79
2021/09/03 09:55:13;;;;;;;8.98;4.25;;;27.90;47.60;;;;;;6244840;28;20343;-80
2021/09/03 09:58:15;;;;;;;31.67;12.52;;;27.90;47.60;;;;;;6243255;28;20049;-79
2021/09/03 10:01:18;;;;;;;6.35;4.05;;;28.10;47.60;;;;;;6237761;28;20068;-79
2021/09/03 10:04:21;;;;;;;9.35;5.43;;;28.30;47.10;;;;;;6245607;28;20061;-79
2021/09/03 10:07:22;;;;;;;20.13;9.50;;;28.40;46.70;;;;;;6227007;28;20363;-79
2021/09/03 10:10:24;;;;;;;13.20;6.45;;;28.50;46.50;;;;;;6244774;28;20042;-80
2021/09/03 10:13:26;;;;;;;14.02;7.32;;;28.70;46.80;;;;;;6245436;28;20530;-80
2021/09/03 10:16:27;;;;;;;11.48;6.95;;;28.80;45.70;;;;;;6244705;28;20057;-79
2021/09/03 10:19:32;;;;;;;8.25;4.00;;;28.90;45.70;;;;;;6226091;28;20041;-79
2021/09/03 10:22:51;;;;;;;9.95;6.28;;;29.00;45.70;;;;;;6232040;28;20044;-79
2021/09/03 10:25:53;;;;;;;15.05;6.28;;;29.10;45.40;;;;;;6244787;28;20044;-79
2021/09/03 10:29:22;;;;;;;9.48;5.25;;;29.20;45.20;;;;;;6249804;28;20152;-77
2021/09/03 10:32:24;;;;;;;14.65;7.60;;;29.30;44.90;;;;;;6234747;28;20030;-80
2021/09/03 10:35:34;;;;;;;19.45;7.85;;;29.30;44.80;;;;;;6225770;28;20127;-79
2021/09/03 10:38:41;;;;;;;9.45;4.78;;;29.40;44.50;;;;;;6250086;28;20327;-79
2021/09/03 10:41:49;;;;;;;8.98;4.65;;;29.50;44.20;;;;;;6243287;28;20125;-78
2021/09/03 10:45:09;;;;;;;7.50;4.20;;;29.60;43.60;;;;;;6226656;28;20042;-80
2021/09/03 10:48:16;;;;;;;6.63;3.40;;;29.80;43.10;;;;;;6225798;28;20041;-78
2021/09/03 10:51:34;;;;;;;9.98;3.67;;;30.00;42.90;;;;;;6241019;28;20043;-79
2021/09/03 10:54:35;;;;;;;9.10;3.13;;;30.30;42.40;;;;;;6233900;28;20454;-79
2021/09/03 10:58:02;;;;;;;4.65;2.72;;;30.50;41.70;;;;;;6230725;28;20121;-77
2021/09/03 11:01:30;;;;;;;8.90;4.43;;;30.60;41.40;;;;;;6222807;28;20037;-80
2021/09/03 11:04:45;;;;;;;6.78;4.70;;;30.70;40.90;;;;;;6227901;28;20048;-79
2021/09/03 11:07:47;;;;;;;12.07;6.78;;;30.80;40.60;;;;;;6234786;28;20041;-78
2021/09/03 11:10:47;;;;;;;15.23;7.68;;;31.00;40.00;;;;;;6234590;28;20040;-79
2021/09/03 11:13:50;;;;;;;8.35;5.28;;;31.20;39.40;;;;;;6242775;28;20474;-79
2021/09/03 11:16:58;;;;;;;13.25;6.10;;;31.60;39.10;;;;;;6226027;28;20045;-79
2021/09/03 11:20:00;;;;;;;11.02;5.75;;;32.00;38.30;;;;;;6241445;28;20419;-77
2021/09/03 11:23:07;;;;;;;15.30;6.03;;;32.30;37.80;;;;;;6213534;28;20457;-76
2021/09/03 11:26:15;;;;;;;12.57;6.47;;;32.70;37.20;;;;;;6240851;28;20044;-77
2021/09/03 11:29:20;;;;;;;;;;;32.90;36.70;;;;;;6241294;28;20093;-77
2021/09/03 11:32:27;;;;;;;18.15;4.30;;;33.20;36.70;;;;;;6240540;28;19913;-79
2021/09/03 11:35:28;;;;;;;6.00;4.03;;;33.40;36.50;;;;;;6236254;28;20041;-79
2021/09/03 11:38:29;;;;;;;13.55;4.05;;;33.60;36.60;;;;;;6227344;28;20041;-79
2021/09/03 11:41:29;;;;;;;7.95;4.30;;;33.80;36.20;;;;;;6225598;28;20116;-79
2021/09/03 11:44:30;;;;;;;10.57;3.90;;;33.90;36.10;;;;;;6239316;28;20052;-79
2021/09/03 11:47:38;;;;;;;11.02;4.57;;;34.10;35.40;;;;;;6241026;28;20081;-79
2021/09/03 11:50:45;;;;;;;10.95;6.13;;;34.30;35.10;;;;;;6242373;28;20366;-79
2021/09/03 11:53:47;;;;;;;6.20;3.83;;;34.50;34.70;;;;;;6242602;28;20037;-79
2021/09/03 11:56:58;;;;;;;5.00;3.72;;;34.80;34.20;;;;;;6239842;28;20445;-79
2021/09/03 12:00:02;;;;;;;10.73;4.13;;;35.10;33.50;;;;;;6239101;28;20116;-80
2021/09/03 12:03:14;;;;;;;11.27;3.45;;;35.40;32.40;;;;;;6235759;28;20041;-77
2021/09/03 12:06:18;;;;;;;4.47;3.20;;;35.40;31.70;;;;;;6235169;28;20099;-79
2021/09/03 12:09:35;;;;;;;12.60;5.38;;;35.20;31.90;;;;;;6226721;28;20111;-78
2021/09/03 12:12:36;;;;;;;13.15;6.57;;;35.20;31.80;;;;;;6242059;28;20033;-78
2021/09/03 12:15:38;;;;;;;10.32;3.95;;;35.30;31.40;;;;;;6242151;28;20044;-78
2021/09/03 12:18:47;;;;;;;6.25;3.38;;;35.60;31.00;;;;;;6226566;28;20477;-79
2021/09/03 12:21:49;;;;;;;4.80;3.08;;;35.90;30.60;;;;;;6226404;28;20049;-79
2021/09/03 12:24:50;;;;;;;9.50;2.97;;;36.30;29.80;;;;;;6244175;28;20208;-79
2021/09/03 12:28:11;;;;;;;4.30;2.63;;;36.60;29.00;;;;;;6243750;28;20566;-78
2021/09/03 12:31:14;;;;;;;7.78;4.90;;;36.90;28.70;;;;;;6202471;28;20417;-79
2021/09/03 12:34:15;;;;;;;6.18;2.80;;;37.20;28.30;;;;;;6223746;28;20061;-79
2021/09/03 12:37:16;;;;;;;4.55;3.00;;;37.50;27.60;;;;;;6241017;28;20341;-78
2021/09/03 12:40:20;;;;;;;4.13;3.00;;;37.70;27.30;;;;;;6241130;28;20041;-78
2021/09/03 12:43:29;;;;;;;5.07;2.55;;;38.00;26.90;;;;;;6222669;28;20124;-78
2021/09/03 12:46:39;;;;;;;3.22;2.38;;;37.90;26.70;;;;;;6243986;28;20359;-78
2021/09/03 12:49:41;;;;;;;5.28;2.60;;;37.60;26.90;;;;;;6248198;28;20124;-79
2021/09/03 12:52:48;;;;;;;4.85;2.63;;;37.40;27.10;;;;;;6231106;28;20125;-78
2021/09/03 12:55:50;;;;;;;6.05;3.25;;;37.30;27.10;;;;;;6247829;28;20057;-78
2021/09/03 12:58:51;;;;;;;4.35;3.08;;;37.30;27.20;;;;;;6230730;28;20410;-77
2021/09/03 13:01:53;;;;;;;6.28;2.78;;;37.30;27.10;;;;;;6246740;28;20033;-78
2021/09/03 13:04:53;;;;;;;4.80;2.60;;;36.90;27.40;;;;;;6247644;28;20056;-78
2021/09/03 13:07:54;;;;;;;4.13;2.63;;;36.80;27.50;;;;;;6247534;28;20435;-78
2021/09/03 13:10:55;;;;;;;4.50;2.90;;;36.80;27.70;;;;;;6200169;28;20042;-78
2021/09/03 13:13:56;;;;;;;9.30;3.72;;;36.80;27.40;;;;;;6215529;28;20045;-78
2021/09/03 13:16:58;;;;;;;5.13;3.00;;;36.80;27.50;;;;;;6247316;28;20049;-78
2021/09/03 13:19:59;;;;;;;3.83;2.60;;;36.70;27.40;;;;;;6248642;28;20149;-77
2021/09/03 13:23:00;;;;;;;3.17;2.40;;;36.70;27.30;;;;;;6247074;28;20461;-77
2021/09/03 13:26:02;;;;;;;4.03;2.50;;;36.90;27.10;;;;;;6248145;28;20052;-76
2021/09/03 13:29:04;;;;;;;4.25;2.90;;;37.10;26.80;;;;;;6218464;28;20038;-78
2021/09/03 13:32:06;;;;;;;2.60;2.28;;;37.10;26.80;;;;;;6229317;28;20045;-78
2021/09/03 13:35:07;;;;;;;4.20;2.70;;;37.20;26.60;;;;;;6230470;28;20045;-78
2021/09/03 13:38:08;;;;;;;5.35;3.00;;;37.50;26.40;;;;;;6230526;28;20041;-77
2021/09/03 13:41:10;;;;;;;5.65;2.40;;;37.50;26.10;;;;;;6247326;28;20072;-78
2021/09/03 13:44:11;;;;;;;3.20;2.55;;;37.30;26.20;;;;;;6236093;28;20132;-79
2021/09/03 13:47:12;;;;;;;13.15;5.97;;;37.00;26.40;;;;;;6238108;28;20391;-78
2021/09/03 13:50:14;;;;;;;7.05;5.00;;;36.70;26.40;;;;;;6244776;28;20052;-78
2021/09/03 13:53:16;;;;;;;3.67;2.70;;;36.20;26.90;;;;;;6247638;28;20041;-78
2021/09/03 13:56:17;;;;;;;3.75;2.80;;;35.70;27.70;;;;;;6246486;28;20426;-78
2021/09/03 13:59:18;;;;;;;9.25;3.13;;;35.30;28.40;;;;;;6224385;28;20041;-78
2021/09/03 14:02:19;;;;;;;5.43;3.00;;;34.90;29.30;;;;;;6228827;28;20041;-78
2021/09/03 14:05:21;;;;;;;9.18;3.45;;;34.50;29.90;;;;;;6246835;28;20037;-77
2021/09/03 14:08:23;;;;;;;6.13;3.10;;;34.20;30.50;;;;;;6247592;28;20041;-78
2021/09/03 14:11:24;;;;;;;4.93;2.90;;;33.90;31.10;;;;;;6247944;28;20036;-78
2021/09/03 14:14:25;;;;;;;5.07;2.72;;;33.60;31.50;;;;;;6246858;28;20099;-77
2021/09/03 14:17:25;;;;;;;5.70;3.30;;;33.30;32.00;;;;;;6248566;28;20033;-78
2021/09/03 14:20:26;;;;;;;7.95;4.35;;;33.00;32.40;;;;;;6222260;28;20084;-78
2021/09/03 14:23:27;;;;;;;7.55;3.33;;;32.70;33.00;;;;;;6226372;28;20414;-78
2021/09/03 14:26:28;;;;;;;6.40;3.08;;;32.40;33.70;;;;;;6242535;28;20033;-78
2021/09/03 14:29:29;;;;;;;6.18;3.72;;;32.10;34.40;;;;;;6244135;28;20038;-78
2021/09/03 14:32:30;;;;;;;4.97;3.10;;;31.90;35.10;;;;;;6235331;28;20049;-79
2021/09/03 14:35:32;;;;;;;4.75;2.60;;;31.60;35.50;;;;;;6240670;28;20111;-78
2021/09/03 14:38:33;;;;;;;3.88;2.80;;;31.50;35.80;;;;;;6228830;28;20029;-80
2021/09/03 14:41:35;;;;;;;5.43;2.90;;;31.30;36.00;;;;;;6245940;28;20108;-78
2021/09/03 14:44:36;;;;;;;8.15;3.60;;;31.20;36.20;;;;;;6244391;28;20473;-77
2021/09/03 14:47:39;;;;;;;4.65;2.67;;;31.10;36.40;;;;;;6244827;28;20042;-80
2021/09/03 14:50:40;;;;;;;3.35;2.50;;;31.00;36.90;;;;;;6245035;28;20042;-77
2021/09/03 14:53:42;;;;;;;6.03;2.55;;;30.90;37.10;;;;;;6245632;28;20355;-81
2021/09/03 14:56:43;;;;;;;4.30;2.83;;;30.90;37.60;;;;;;6244274;28;20049;-79
2021/09/03 14:59:44;;;;;;;5.93;2.90;;;30.70;37.70;;;;;;6245184;28;20038;-77
2021/09/03 15:02:45;;;;;;;4.53;2.83;;;30.60;38.00;;;;;;6244432;28;20051;-78
2021/09/03 15:05:46;;;;;;;11.10;4.00;;;30.60;38.20;;;;;;6244358;28;20112;-79
2021/09/03 15:08:47;;;;;;;6.18;3.05;;;30.50;38.50;;;;;;6244642;28;20374;-77
2021/09/03 15:11:49;;;;;;;5.35;3.22;;;30.40;38.60;;;;;;6218959;28;20126;-80
2021/09/03 15:14:52;;;;;;;4.25;2.42;;;30.40;38.70;;;;;;6234606;28;20052;-78
2021/09/03 15:17:53;;;;;;;4.43;2.30;;;30.40;38.80;;;;;;6193911;28;20048;-78
2021/09/03 15:20:55;;;;;;;4.00;2.72;;;30.40;39.00;;;;;;6219882;28;20363;-78
2021/09/03 15:23:56;;;;;;;8.13;2.85;;;30.30;39.00;;;;;;6203598;28;20052;-78
2021/09/03 15:26:58;;;;;;;8.15;2.50;;;30.30;39.10;;;;;;6219644;28;20495;-78
2021/09/03 15:29:59;;;;;;;6.88;2.90;;;30.30;39.00;;;;;;6203941;28;20438;-78
2021/09/03 15:33:00;;;;;;;4.30;2.50;;;30.30;39.10;;;;;;6223906;28;20025;-79
2021/09/03 15:36:01;;;;;;;9.43;3.47;;;30.40;39.00;;;;;;6228392;28;20412;-78
2021/09/03 15:39:04;;;;;;;6.75;4.60;;;30.40;38.90;;;;;;6245885;28;20091;-80
2021/09/03 15:42:05;;;;;;;5.70;3.35;;;30.40;39.00;;;;;;6244667;28;20033;-80
2021/09/03 15:45:07;;;;;;;8.45;3.50;;;30.50;39.00;;;;;;6237695;28;20038;-79
2021/09/03 15:48:08;;;;;;;4.93;3.35;;;30.50;39.10;;;;;;6243999;28;20049;-78